createdAt,value
2023-04-25T00:00:00.508Z,984
2023-04-25T00:01:00.537Z,984
2023-04-25T00:02:00.502Z,984
2023-04-25T00:03:00.756Z,984
2023-04-25T00:04:00.699Z,984.3
2023-04-25T00:05:00.697Z,984.3
2023-04-25T00:06:00.495Z,984.3
2023-04-25T00:07:00.487Z,984.3
2023-04-25T00:08:00.532Z,984.5
2023-04-25T00:09:00.492Z,984.3
2023-04-25T00:10:00.505Z,984.3
2023-04-25T00:11:00.508Z,984.5
2023-04-25T00:12:00.515Z,984
2023-04-25T00:13:00.545Z,984
2023-04-25T00:14:00.511Z,984
2023-04-25T00:15:00.525Z,984
2023-04-25T00:16:00.527Z,984
2023-04-25T00:17:00.505Z,984
2023-04-25T00:18:00.630Z,984
2023-04-25T00:19:00.501Z,983.8
2023-04-25T00:20:00.530Z,983.6
2023-04-25T00:21:00.533Z,983.6
2023-04-25T00:22:00.513Z,983.6
2023-04-25T00:23:00.513Z,983.6
2023-04-25T00:24:00.532Z,983.6
2023-04-25T00:25:00.527Z,983.4
2023-04-25T00:26:00.524Z,983.2
2023-04-25T00:27:00.531Z,983.2
2023-04-25T00:28:00.512Z,983
2023-04-25T00:29:00.581Z,982.7
2023-04-25T00:30:00.547Z,983
2023-04-25T00:31:00.644Z,982.7
2023-04-25T00:32:00.751Z,982.7
2023-04-25T00:33:00.561Z,983
2023-04-25T00:34:00.530Z,982.7
2023-04-25T00:35:00.562Z,982.7
2023-04-25T00:36:00.519Z,982.3
2023-04-25T00:37:00.544Z,982.7
2023-04-25T00:38:00.515Z,982.7
2023-04-25T00:39:00.519Z,982.7
2023-04-25T00:40:00.553Z,982.7
2023-04-25T00:41:00.552Z,982.7
2023-04-25T00:42:00.577Z,982.7
2023-04-25T00:43:00.540Z,982.3
2023-04-25T00:44:00.526Z,982.3
2023-04-25T00:45:00.556Z,982.1
2023-04-25T00:46:00.554Z,981.9
2023-04-25T00:47:00.620Z,981.9
2023-04-25T00:48:00.573Z,981.7
2023-04-25T00:49:00.574Z,981.4
2023-04-25T00:50:00.542Z,981.4
2023-04-25T00:51:00.530Z,981.4
2023-04-25T00:52:00.544Z,981
2023-04-25T00:53:00.556Z,981
2023-04-25T00:54:00.531Z,980.6
2023-04-25T00:55:00.589Z,980.8
2023-04-25T00:56:00.559Z,980.6
2023-04-25T00:57:00.547Z,980.4
2023-04-25T00:58:00.536Z,980.6
2023-04-25T00:59:00.546Z,980.4
2023-04-25T01:00:00.589Z,980.1
2023-04-25T01:01:00.636Z,980.1
2023-04-25T01:02:00.621Z,980.1
2023-04-25T01:03:00.741Z,980.1
2023-04-25T01:04:00.672Z,980.1
2023-04-25T01:05:00.561Z,980.1
2023-04-25T01:06:00.556Z,979.7
2023-04-25T01:07:00.571Z,979.7
2023-04-25T01:08:00.550Z,979.5
2023-04-25T01:09:00.534Z,979.7
2023-04-25T01:10:00.585Z,979.5
2023-04-25T01:11:00.574Z,979.3
2023-04-25T01:12:00.557Z,979.3
2023-04-25T01:13:00.587Z,979.7
2023-04-25T01:14:00.555Z,979.3
2023-04-25T01:15:00.572Z,979.3
2023-04-25T01:16:00.563Z,979.3
2023-04-25T01:17:00.693Z,979.3
2023-04-25T01:18:00.608Z,979.3
2023-04-25T01:19:00.622Z,979.3
2023-04-25T01:20:00.707Z,979.3
2023-04-25T01:21:00.559Z,979.7
2023-04-25T01:22:00.556Z,979.3
2023-04-25T01:23:00.569Z,979.3
2023-04-25T01:24:00.564Z,979
2023-04-25T01:25:00.617Z,979
2023-04-25T01:26:00.593Z,978.8
2023-04-25T01:27:00.578Z,978.8
2023-04-25T01:28:00.568Z,978.8
2023-04-25T01:29:00.562Z,978.6
2023-04-25T01:30:00.699Z,979.3
2023-04-25T01:31:00.570Z,979.7
2023-04-25T01:32:00.606Z,979.5
2023-04-25T01:33:00.600Z,979.3
2023-04-25T01:34:00.578Z,979.5
2023-04-25T01:35:00.578Z,979.5
2023-04-25T01:36:00.593Z,979.3
2023-04-25T01:37:00.588Z,979.3
2023-04-25T01:38:00.589Z,979.3
2023-04-25T01:39:00.600Z,979
2023-04-25T01:40:00.640Z,978.8
2023-04-25T01:41:00.596Z,979.3
2023-04-25T01:42:00.603Z,979.5
2023-04-25T01:43:00.595Z,979.5
2023-04-25T01:44:00.578Z,979.7
2023-04-25T01:45:00.589Z,979.7
2023-04-25T01:46:00.604Z,980.1
2023-04-25T01:47:00.600Z,980.1
2023-04-25T01:48:00.669Z,979.9
2023-04-25T01:49:00.595Z,980.1
2023-04-25T01:50:00.608Z,980.1
2023-04-25T01:51:00.624Z,980.1
2023-04-25T01:52:00.619Z,980.1
2023-04-25T01:53:00.586Z,980.1
2023-04-25T01:54:01.215Z,980.1
2023-04-25T01:55:00.628Z,979.9
2023-04-25T01:56:00.614Z,979.7
2023-04-25T01:57:00.611Z,979.7
2023-04-25T01:58:00.594Z,980.1
2023-04-25T01:59:00.617Z,979.7
2023-04-25T02:00:01.941Z,979.7
2023-04-25T02:01:01.785Z,979.5
2023-04-25T02:02:01.718Z,979.7
2023-04-25T02:03:02.086Z,979.7
2023-04-25T02:04:02.015Z,979.7
2023-04-25T02:05:01.812Z,979.7
2023-04-25T02:06:02.001Z,979.7
2023-04-25T02:07:01.784Z,979.3
2023-04-25T02:08:01.824Z,979.3
2023-04-25T02:09:01.862Z,979.3
2023-04-25T02:10:02.280Z,979.3
2023-04-25T02:11:02.131Z,979
2023-04-25T02:12:01.981Z,979
2023-04-25T02:13:01.925Z,979.3
2023-04-25T02:14:01.871Z,979.3
2023-04-25T02:15:01.998Z,979.3
2023-04-25T02:16:02.042Z,979.3
2023-04-25T02:17:02.170Z,979.3
2023-04-25T02:18:02.070Z,979.3
2023-04-25T02:19:01.899Z,979.3
2023-04-25T02:20:02.108Z,979.3
2023-04-25T02:21:01.915Z,979.3
2023-04-25T02:22:01.928Z,979.7
2023-04-25T02:23:01.780Z,979.7
2023-04-25T02:24:01.892Z,979.7
2023-04-25T02:25:01.761Z,979.7
2023-04-25T02:26:01.742Z,979.7
2023-04-25T02:27:01.771Z,979.7
2023-04-25T02:28:01.741Z,979.7
2023-04-25T02:29:01.749Z,979.3
2023-04-25T02:30:01.956Z,979.7
2023-04-25T02:31:01.778Z,979.7
2023-04-25T02:32:01.757Z,979.3
2023-04-25T02:33:01.802Z,979.3
2023-04-25T02:34:01.736Z,979.5
2023-04-25T02:35:01.760Z,979.3
2023-04-25T02:36:01.768Z,979.5
2023-04-25T02:37:01.747Z,979.3
2023-04-25T02:38:01.765Z,979.3
2023-04-25T02:39:01.742Z,979.5
2023-04-25T02:40:01.852Z,979.7
2023-04-25T02:41:01.780Z,979.7
2023-04-25T02:42:01.767Z,979.7
2023-04-25T02:43:01.777Z,979.7
2023-04-25T02:44:01.751Z,979.7
2023-04-25T02:45:01.792Z,979.7
2023-04-25T02:46:01.769Z,979.9
2023-04-25T02:47:01.833Z,979.7
2023-04-25T02:48:01.840Z,979.7
2023-04-25T02:49:01.754Z,979.3
2023-04-25T02:50:01.891Z,979.3
2023-04-25T02:51:01.777Z,979.7
2023-04-25T02:52:01.776Z,979.7
2023-04-25T02:53:01.774Z,979.7
2023-04-25T02:54:01.793Z,979.7
2023-04-25T02:55:01.797Z,979.7
2023-04-25T02:56:01.789Z,979.7
2023-04-25T02:57:01.790Z,979.9
2023-04-25T02:58:01.786Z,980.1
2023-04-25T02:59:01.754Z,980.1
2023-04-25T03:00:01.997Z,980.1
2023-04-25T03:01:01.893Z,980.1
2023-04-25T03:02:01.775Z,980.1
2023-04-25T03:03:01.915Z,980.1
2023-04-25T03:04:01.779Z,980.1
2023-04-25T03:05:01.792Z,980.1
2023-04-25T03:06:01.834Z,980.1
2023-04-25T03:07:01.810Z,980.1
2023-04-25T03:08:01.769Z,980.1
2023-04-25T03:09:01.824Z,980.1
2023-04-25T03:10:01.846Z,980.1
2023-04-25T03:11:01.802Z,980.1
2023-04-25T03:12:01.792Z,980.1
2023-04-25T03:13:01.812Z,980.1
2023-04-25T03:14:01.773Z,979.9
2023-04-25T03:15:01.782Z,979.9
2023-04-25T03:16:02.073Z,980.1
2023-04-25T03:17:01.839Z,980.1
2023-04-25T03:18:01.877Z,980.1
2023-04-25T03:19:01.812Z,980.1
2023-04-25T03:20:01.919Z,980.1
2023-04-25T03:21:01.856Z,980.1
2023-04-25T03:22:01.793Z,980.1
2023-04-25T03:23:01.793Z,980.4
2023-04-25T03:24:01.792Z,980.4
2023-04-25T03:25:01.795Z,980.4
2023-04-25T03:26:01.838Z,980.4
2023-04-25T03:27:01.813Z,980.6
2023-04-25T03:28:01.798Z,980.4
2023-04-25T03:29:01.792Z,980.6
2023-04-25T03:30:01.866Z,980.6
2023-04-25T03:31:01.828Z,980.6
2023-04-25T03:32:01.861Z,980.6
2023-04-25T03:33:01.887Z,980.6
2023-04-25T03:34:01.829Z,981
2023-04-25T03:35:01.824Z,981.2
2023-04-25T03:36:01.828Z,981
2023-04-25T03:37:01.803Z,981.4
2023-04-25T03:38:01.804Z,981.4
2023-04-25T03:39:01.824Z,981.4
2023-04-25T03:40:01.854Z,981.4
2023-04-25T03:41:01.825Z,981.4
2023-04-25T03:42:01.821Z,981.7
2023-04-25T03:43:01.811Z,981.9
2023-04-25T03:44:01.814Z,981.7
2023-04-25T03:45:01.855Z,981.9
2023-04-25T03:46:01.863Z,981.9
2023-04-25T03:47:01.877Z,981.9
2023-04-25T03:48:01.946Z,981.9
2023-04-25T03:49:01.806Z,981.9
2023-04-25T03:50:01.910Z,981.9
2023-04-25T03:51:01.815Z,981.9
2023-04-25T03:52:01.824Z,981.9
2023-04-25T03:53:01.860Z,981.9
2023-04-25T03:54:01.820Z,981.9
2023-04-25T03:55:01.824Z,982.1
2023-04-25T03:56:01.830Z,982.1
2023-04-25T03:57:01.867Z,982.1
2023-04-25T03:58:01.854Z,981.9
2023-04-25T03:59:01.830Z,981.9
2023-04-25T04:00:01.994Z,981.9
2023-04-25T04:01:01.827Z,981.9
2023-04-25T04:02:01.867Z,981.9
2023-04-25T04:03:02.050Z,982.3
2023-04-25T04:04:02.053Z,982.3
2023-04-25T04:05:02.089Z,982.1
2023-04-25T04:06:01.849Z,982.3
2023-04-25T04:07:01.861Z,982.3
2023-04-25T04:08:01.844Z,982.3
2023-04-25T04:09:01.858Z,982.3
2023-04-25T04:10:01.940Z,982.5
2023-04-25T04:11:01.864Z,982.7
2023-04-25T04:12:01.855Z,982.5
2023-04-25T04:13:01.855Z,982.7
2023-04-25T04:14:01.864Z,982.7
2023-04-25T04:15:01.843Z,982.7
2023-04-25T04:16:01.997Z,982.3
2023-04-25T04:17:01.870Z,982.5
2023-04-25T04:18:01.875Z,982.7
2023-04-25T04:19:01.859Z,982.7
2023-04-25T04:20:01.934Z,983
2023-04-25T04:21:01.874Z,983.2
2023-04-25T04:22:01.869Z,983.2
2023-04-25T04:23:01.871Z,983.2
2023-04-25T04:24:02.915Z,983.2
2023-04-25T04:25:01.935Z,983.6
2023-04-25T04:26:01.904Z,983.4
2023-04-25T04:27:01.868Z,983.4
2023-04-25T04:28:01.898Z,983.4
2023-04-25T04:29:01.877Z,983.6
2023-04-25T04:30:01.940Z,983.6
2023-04-25T04:31:01.958Z,983.6
2023-04-25T04:32:01.900Z,983.6
2023-04-25T04:33:01.958Z,983.6
2023-04-25T04:34:01.910Z,983.6
2023-04-25T04:35:01.880Z,983.6
2023-04-25T04:36:01.936Z,983.6
2023-04-25T04:37:01.934Z,983.6
2023-04-25T04:38:01.875Z,984
2023-04-25T04:39:01.894Z,983.8
2023-04-25T04:40:02.058Z,983.8
2023-04-25T04:41:01.917Z,983.8
2023-04-25T04:42:01.902Z,983.8
2023-04-25T04:43:01.928Z,983.8
2023-04-25T04:44:01.911Z,983.6
2023-04-25T04:45:01.923Z,983.6
2023-04-25T04:46:01.892Z,983.6
2023-04-25T04:47:02.006Z,983.6
2023-04-25T04:48:01.936Z,983.6
2023-04-25T04:49:01.899Z,983.6
2023-04-25T04:50:01.931Z,983.2
2023-04-25T04:51:01.904Z,983
2023-04-25T04:52:01.937Z,983.2
2023-04-25T04:53:01.933Z,982.7
2023-04-25T04:54:01.924Z,982.5
2023-04-25T04:55:01.928Z,982.3
2023-04-25T04:56:01.952Z,982.3
2023-04-25T04:57:01.947Z,982.3
2023-04-25T04:58:01.908Z,982.5
2023-04-25T04:59:01.922Z,982.3
2023-04-25T05:00:02.205Z,982.1
2023-04-25T05:01:02.088Z,982.1
2023-04-25T05:02:01.915Z,981.9
2023-04-25T05:03:02.056Z,981.9
2023-04-25T05:04:02.478Z,981.9
2023-04-25T05:05:01.976Z,981.9
2023-04-25T05:06:01.998Z,981.9
2023-04-25T05:07:02.019Z,981.7
2023-04-25T05:08:01.991Z,981.7
2023-04-25T05:09:01.953Z,981.9
2023-04-25T05:10:02.164Z,981.7
2023-04-25T05:11:01.984Z,981.7
2023-04-25T05:12:01.966Z,981.4
2023-04-25T05:13:01.949Z,981.4
2023-04-25T05:14:02.022Z,981.7
2023-04-25T05:15:02.010Z,981.9
2023-04-25T05:16:02.004Z,981.9
2023-04-25T05:17:02.039Z,981.9
2023-04-25T05:18:01.988Z,981.4
2023-04-25T05:19:01.998Z,981.4
2023-04-25T05:20:02.003Z,981.4
2023-04-25T05:21:02.110Z,981
2023-04-25T05:22:01.968Z,981
2023-04-25T05:23:01.950Z,981
2023-04-25T05:24:02.004Z,980.8
2023-04-25T05:25:01.961Z,980.6
2023-04-25T05:26:01.964Z,980.6
2023-04-25T05:27:01.968Z,980.6
2023-04-25T05:28:01.976Z,980.6
2023-04-25T05:29:01.972Z,980.6
2023-04-25T05:30:02.003Z,980.6
2023-04-25T05:31:01.956Z,980.8
2023-04-25T05:32:01.963Z,980.6
2023-04-25T05:33:01.974Z,980.4
2023-04-25T05:34:01.966Z,980.4
2023-04-25T05:35:02.162Z,980.6
2023-04-25T05:36:01.975Z,980.6
2023-04-25T05:37:02.068Z,980.8
2023-04-25T05:38:00.516Z,980.6
2023-04-25T05:39:00.552Z,980.6
2023-04-25T05:40:00.538Z,980.6
2023-04-25T05:41:00.570Z,980.4
2023-04-25T05:42:00.543Z,980.4
2023-04-25T05:43:00.549Z,980.1
2023-04-25T05:44:00.608Z,980.4
2023-04-25T05:45:00.605Z,979.9
2023-04-25T05:46:00.586Z,980.1
2023-04-25T05:47:00.544Z,980.6
2023-04-25T05:48:00.555Z,980.6
2023-04-25T05:49:00.547Z,980.6
2023-04-25T05:50:00.553Z,980.8
2023-04-25T05:51:00.548Z,980.6
2023-04-25T05:52:00.545Z,980.8
2023-04-25T05:53:00.553Z,980.6
2023-04-25T05:54:00.539Z,980.4
2023-04-25T05:55:00.568Z,980.6
2023-04-25T05:56:00.653Z,980.6
2023-04-25T05:57:00.553Z,980.6
2023-04-25T05:58:00.586Z,980.1
2023-04-25T05:59:00.563Z,980.1
2023-04-25T06:00:00.585Z,980.1
2023-04-25T06:01:00.583Z,980.1
2023-04-25T06:02:00.608Z,979.9
2023-04-25T06:03:00.725Z,979.7
2023-04-25T06:04:00.804Z,979.7
2023-04-25T06:05:00.870Z,979.7
2023-04-25T06:06:00.733Z,979.3
2023-04-25T06:07:00.552Z,979.3
2023-04-25T06:08:00.567Z,979.3
2023-04-25T06:09:00.581Z,979.3
2023-04-25T06:10:00.573Z,979.3
2023-04-25T06:11:00.595Z,979
2023-04-25T06:12:00.570Z,979.3
2023-04-25T06:13:00.594Z,979
2023-04-25T06:14:00.577Z,978.8
2023-04-25T06:15:00.571Z,978.8
2023-04-25T06:16:00.600Z,978.4
2023-04-25T06:17:00.569Z,978
2023-04-25T06:18:00.666Z,978
2023-04-25T06:19:00.552Z,978
2023-04-25T06:20:00.556Z,977.5
2023-04-25T06:21:00.582Z,977.5
2023-04-25T06:22:00.561Z,977.7
2023-04-25T06:23:00.587Z,977.7
2023-04-25T06:24:00.585Z,978
2023-04-25T06:25:00.623Z,977.7
2023-04-25T06:26:00.566Z,977.5
2023-04-25T06:27:00.565Z,977.5
2023-04-25T06:28:00.593Z,977.3
2023-04-25T06:29:00.595Z,977.5
2023-04-25T06:30:00.576Z,977.5
2023-04-25T06:31:00.619Z,977.5
2023-04-25T06:32:00.583Z,977.5
2023-04-25T06:33:00.648Z,977.3
2023-04-25T06:34:00.583Z,977.3
2023-04-25T06:35:00.613Z,977.3
2023-04-25T06:36:00.601Z,977.3
2023-04-25T06:37:00.583Z,977.1
2023-04-25T06:38:00.601Z,976.9
2023-04-25T06:39:00.599Z,977.1
2023-04-25T06:40:00.618Z,977.1
2023-04-25T06:41:00.620Z,977.1
2023-04-25T06:42:00.599Z,976.9
2023-04-25T06:43:00.603Z,976.2
2023-04-25T06:44:00.606Z,976.2
2023-04-25T06:45:00.618Z,976.2
2023-04-25T06:46:00.596Z,976.2
2023-04-25T06:47:00.674Z,976
2023-04-25T06:48:00.700Z,976.2
2023-04-25T06:49:00.623Z,976.4
2023-04-25T06:50:00.599Z,976.7
2023-04-25T06:51:00.609Z,976.7
2023-04-25T06:52:00.592Z,976.4
2023-04-25T06:53:00.639Z,976.7
2023-04-25T06:54:00.644Z,976.7
2023-04-25T06:55:00.620Z,976.2
2023-04-25T06:56:00.648Z,976.2
2023-04-25T06:57:00.639Z,976.2
2023-04-25T06:58:00.612Z,976.2
2023-04-25T06:59:00.655Z,976.4
2023-04-25T07:00:02.277Z,976.2
2023-04-25T07:01:00.720Z,976.4
2023-04-25T07:02:00.622Z,976.2
2023-04-25T07:03:00.859Z,976.2
2023-04-25T07:04:00.887Z,976.2
2023-04-25T07:05:00.644Z,976.2
2023-04-25T07:06:00.641Z,976.2
2023-04-25T07:07:00.636Z,976.2
2023-04-25T07:08:00.615Z,976.2
2023-04-25T07:09:00.933Z,976.4
2023-04-25T07:10:00.655Z,976.4
2023-04-25T07:11:00.648Z,976.9
2023-04-25T07:12:00.640Z,977.5
2023-04-25T07:13:00.653Z,977.5
2023-04-25T07:14:00.632Z,977.3
2023-04-25T07:15:00.657Z,977.3
2023-04-25T07:16:00.704Z,977.3
2023-04-25T07:17:00.732Z,977.5
2023-04-25T07:18:00.663Z,978
2023-04-25T07:19:00.629Z,977.5
2023-04-25T07:20:00.643Z,977.7
2023-04-25T07:21:00.666Z,978
2023-04-25T07:22:00.663Z,978
2023-04-25T07:23:00.636Z,978
2023-04-25T07:24:00.758Z,978.2
2023-04-25T07:25:00.659Z,978
2023-04-25T07:26:00.663Z,978.4
2023-04-25T07:27:00.663Z,978.4
2023-04-25T07:28:00.644Z,978.4
2023-04-25T07:29:00.649Z,978.4
2023-04-25T07:30:00.658Z,978.6
2023-04-25T07:31:00.662Z,978.8
2023-04-25T07:32:00.756Z,979
2023-04-25T07:33:00.663Z,979.3
2023-04-25T07:34:02.174Z,979.5
2023-04-25T07:35:00.742Z,979.5
2023-04-25T07:36:00.660Z,979.5
2023-04-25T07:37:00.640Z,979.5
2023-04-25T07:38:00.670Z,979.7
2023-04-25T07:39:00.668Z,979.5
2023-04-25T07:40:00.702Z,979.5
2023-04-25T07:41:00.684Z,979.7
2023-04-25T07:42:00.678Z,979.7
2023-04-25T07:43:00.661Z,980.1
2023-04-25T07:44:00.692Z,980.1
2023-04-25T07:45:00.713Z,980.1
2023-04-25T07:46:00.696Z,980.1
2023-04-25T07:47:02.470Z,980.1
2023-04-25T07:48:00.717Z,980.4
2023-04-25T07:49:00.704Z,980.4
2023-04-25T07:50:00.681Z,980.1
2023-04-25T07:51:00.725Z,979.7
2023-04-25T07:52:00.688Z,979.9
2023-04-25T07:53:00.687Z,979.9
2023-04-25T07:54:00.684Z,979.7
2023-04-25T07:55:00.702Z,979.9
2023-04-25T07:56:00.701Z,980.1
2023-04-25T07:57:00.688Z,980.1
2023-04-25T07:58:00.675Z,980.1
2023-04-25T07:59:00.688Z,980.6
2023-04-25T08:00:00.700Z,980.6
2023-04-25T08:01:00.693Z,980.6
2023-04-25T08:02:00.683Z,980.6
2023-04-25T08:03:00.842Z,980.6
2023-04-25T08:04:00.785Z,980.6
2023-04-25T08:05:01.053Z,980.6
2023-04-25T08:06:01.649Z,980.4
2023-04-25T08:07:00.679Z,980.4
2023-04-25T08:08:00.692Z,980.1
2023-04-25T08:09:00.709Z,979.9
2023-04-25T08:10:00.732Z,979.7
2023-04-25T08:11:00.705Z,979.7
2023-04-25T08:12:00.690Z,979.7
2023-04-25T08:13:00.703Z,979.5
2023-04-25T08:14:00.707Z,978.8
2023-04-25T08:15:00.736Z,978.8
2023-04-25T08:16:00.707Z,978.8
2023-04-25T08:17:00.724Z,979
2023-04-25T08:18:00.743Z,978.8
2023-04-25T08:19:00.704Z,978.6
2023-04-25T08:20:00.802Z,978.8
2023-04-25T08:21:00.760Z,978.6
2023-04-25T08:22:00.744Z,978.4
2023-04-25T08:23:00.704Z,978.8
2023-04-25T08:24:00.714Z,978.8
2023-04-25T08:25:00.721Z,978.8
2023-04-25T08:26:00.715Z,978.8
2023-04-25T08:27:00.739Z,978.8
2023-04-25T08:28:01.304Z,978.4
2023-04-25T08:29:00.723Z,978.8
2023-04-25T08:30:01.045Z,978.8
2023-04-25T08:31:00.855Z,978.4
2023-04-25T08:32:00.832Z,978.6
2023-04-25T08:33:00.850Z,978.8
2023-04-25T08:34:00.870Z,979.3
2023-04-25T08:35:00.848Z,978.4
2023-04-25T08:36:00.853Z,978.2
2023-04-25T08:37:00.783Z,978.8
2023-04-25T08:38:00.754Z,978.8
2023-04-25T08:39:00.798Z,978.6
2023-04-25T08:40:01.060Z,978.4
2023-04-25T08:41:00.900Z,978.8
2023-04-25T08:42:00.933Z,978.8
2023-04-25T08:43:00.932Z,978.8
2023-04-25T08:44:00.867Z,978.8
2023-04-25T08:45:00.923Z,978.8
2023-04-25T08:46:00.906Z,979.3
2023-04-25T08:47:00.918Z,978.8
2023-04-25T08:48:00.967Z,979.3
2023-04-25T08:49:00.894Z,979.3
2023-04-25T08:50:01.090Z,979.7
2023-04-25T08:51:00.959Z,979.3
2023-04-25T08:52:00.955Z,978.8
2023-04-25T08:53:00.959Z,979.3
2023-04-25T08:54:08.921Z,979.3
2023-04-25T08:55:01.021Z,978.8
2023-04-25T08:56:00.901Z,979.3
2023-04-25T08:57:01.028Z,979
2023-04-25T08:58:00.946Z,979.3
2023-04-25T08:59:00.790Z,979.3
2023-04-25T09:00:01.098Z,978.8
2023-04-25T09:01:00.827Z,978.4
2023-04-25T09:02:00.956Z,978.6
2023-04-25T09:03:01.358Z,978.8
2023-04-25T09:04:00.892Z,978.8
2023-04-25T09:05:00.825Z,979
2023-04-25T09:06:00.754Z,978.4
2023-04-25T09:07:00.795Z,978.4
2023-04-25T09:08:00.788Z,978.4
2023-04-25T09:09:00.761Z,978.8
2023-04-25T09:10:00.829Z,979.3
2023-04-25T09:11:00.747Z,978.8
2023-04-25T09:12:00.767Z,978
2023-04-25T09:13:01.856Z,978.4
2023-04-25T09:14:00.747Z,978.2
2023-04-25T09:15:00.816Z,978.4
2023-04-25T09:16:00.848Z,978.8
2023-04-25T09:17:00.983Z,978.8
2023-04-25T09:18:00.798Z,978.4
2023-04-25T09:19:00.750Z,977.7
2023-04-25T09:20:00.901Z,977.7
2023-04-25T09:21:03.011Z,977.3
2023-04-25T09:22:01.126Z,978
2023-04-25T09:23:00.756Z,978
2023-04-25T09:24:00.758Z,977.5
2023-04-25T09:25:00.763Z,978.2
2023-04-25T09:26:00.772Z,977.7
2023-04-25T09:27:00.771Z,978.4
2023-04-25T09:28:00.790Z,978.6
2023-04-25T09:29:00.801Z,978.4
2023-04-25T09:30:01.869Z,978.8
2023-04-25T09:31:00.780Z,978.8
2023-04-25T09:32:00.838Z,978.8
2023-04-25T09:33:00.770Z,979
2023-04-25T09:34:01.225Z,978.6
2023-04-25T09:35:00.770Z,978.6
2023-04-25T09:36:00.867Z,978.2
2023-04-25T09:37:00.804Z,978
2023-04-25T09:38:00.771Z,978
2023-04-25T09:39:00.782Z,978.4
2023-04-25T09:40:00.809Z,978
2023-04-25T09:41:00.802Z,976.9
2023-04-25T09:42:00.897Z,977.1
2023-04-25T09:43:00.772Z,976.7
2023-04-25T09:44:01.487Z,976.7
2023-04-25T09:45:00.775Z,975.8
2023-04-25T09:46:00.852Z,975.6
2023-04-25T09:47:00.782Z,975.8
2023-04-25T09:48:00.800Z,976.7
2023-04-25T09:49:00.785Z,977.1
2023-04-25T09:50:00.797Z,976.2
2023-04-25T09:51:00.795Z,975.4
2023-04-25T09:52:00.806Z,976
2023-04-25T09:53:00.773Z,975.1
2023-04-25T09:54:00.781Z,974.9
2023-04-25T09:55:00.817Z,975.4
2023-04-25T09:56:00.819Z,975.4
2023-04-25T09:57:00.872Z,975.4
2023-04-25T09:58:00.782Z,975.8
2023-04-25T09:59:00.809Z,975.8
2023-04-25T10:00:01.168Z,976.2
2023-04-25T10:01:00.825Z,974.7
2023-04-25T10:02:01.814Z,974.7
2023-04-25T10:03:00.869Z,974.5
2023-04-25T10:04:01.107Z,974.5
2023-04-25T10:05:00.885Z,973.2
2023-04-25T10:06:00.830Z,974.7
2023-04-25T10:07:00.866Z,973.2
2023-04-25T10:08:00.832Z,973.6
2023-04-25T10:09:00.794Z,974.7
2023-04-25T10:10:01.174Z,974.5
2023-04-25T10:11:00.848Z,974.7
2023-04-25T10:12:00.824Z,972.5
2023-04-25T10:13:00.810Z,973.6
2023-04-25T10:14:00.827Z,973.6
2023-04-25T10:15:00.954Z,974.5
2023-04-25T10:16:00.885Z,974.5
2023-04-25T10:17:00.837Z,973.2
2023-04-25T10:18:00.839Z,973.2
2023-04-25T10:19:00.819Z,974
2023-04-25T10:20:00.994Z,972.7
2023-04-25T10:21:00.856Z,973.2
2023-04-25T10:22:00.833Z,973.8
2023-04-25T10:23:00.840Z,972.5
2023-04-25T10:24:00.829Z,973.2
2023-04-25T10:25:00.864Z,972.3
2023-04-25T10:26:00.854Z,973.2
2023-04-25T10:27:00.819Z,973.6
2023-04-25T10:28:00.838Z,972.3
2023-04-25T10:29:00.860Z,971.9
2023-04-25T10:30:00.938Z,971.9
2023-04-25T10:31:00.967Z,972.1
2023-04-25T10:32:00.889Z,971.4
2023-04-25T10:33:00.817Z,972.3
2023-04-25T10:34:00.852Z,971.4
2023-04-25T10:35:00.886Z,972.7
2023-04-25T10:36:00.836Z,972.3
2023-04-25T10:37:00.841Z,971.4
2023-04-25T10:38:00.903Z,971
2023-04-25T10:39:00.837Z,969
2023-04-25T10:40:00.913Z,971
2023-04-25T10:41:00.854Z,970.6
2023-04-25T10:42:00.849Z,971
2023-04-25T10:43:00.826Z,971.4
2023-04-25T10:44:00.838Z,971.2
2023-04-25T10:45:00.874Z,972.3
2023-04-25T10:46:00.830Z,972.7
2023-04-25T10:47:00.950Z,973
2023-04-25T10:48:01.012Z,973.2
2023-04-25T10:49:00.838Z,971.9
2023-04-25T10:50:00.947Z,971.2
2023-04-25T10:51:00.881Z,970.1
2023-04-25T10:52:00.863Z,971.2
2023-04-25T10:53:00.858Z,970.8
2023-04-25T10:54:00.864Z,969.7
2023-04-25T10:55:00.880Z,968.6
2023-04-25T10:56:00.872Z,970.1
2023-04-25T10:57:00.870Z,968.4
2023-04-25T10:58:00.907Z,967.3
2023-04-25T10:59:00.878Z,968.4
2023-04-25T11:00:01.096Z,968
2023-04-25T11:01:00.903Z,967.5
2023-04-25T11:02:00.959Z,968.2
2023-04-25T11:03:01.078Z,969.3
2023-04-25T11:04:01.037Z,969.3
2023-04-25T11:05:00.922Z,968.8
2023-04-25T11:06:00.892Z,968.8
2023-04-25T11:07:06.534Z,968.8
2023-04-25T11:08:07.853Z,969.9
2023-04-25T11:09:00.912Z,969
2023-04-25T11:10:00.980Z,968
2023-04-25T11:11:00.922Z,968.6
2023-04-25T11:12:00.908Z,968
2023-04-25T11:13:00.908Z,968
2023-04-25T11:14:00.901Z,968
2023-04-25T11:15:00.998Z,968
2023-04-25T11:16:12.128Z,968
2023-04-25T11:17:01.314Z,966.7
2023-04-25T11:18:00.981Z,965.4
2023-04-25T11:19:00.905Z,967.3
2023-04-25T11:20:01.039Z,966.7
2023-04-25T11:21:00.883Z,966.4
2023-04-25T11:22:00.997Z,965.8
2023-04-25T11:23:00.944Z,966.7
2023-04-25T11:24:00.928Z,966.2
2023-04-25T11:25:00.910Z,966.4
2023-04-25T11:26:00.916Z,966.2
2023-04-25T11:27:00.946Z,965.4
2023-04-25T11:28:00.903Z,966.9
2023-04-25T11:29:00.895Z,967.5
2023-04-25T11:30:01.057Z,967.1
2023-04-25T11:31:00.912Z,967.1
2023-04-25T11:32:00.913Z,967.1
2023-04-25T11:33:00.951Z,966
2023-04-25T11:34:00.939Z,967.7
2023-04-25T11:35:00.937Z,966.2
2023-04-25T11:36:00.904Z,967.5
2023-04-25T11:37:00.927Z,967.1
2023-04-25T11:38:00.880Z,965.4
2023-04-25T11:39:00.845Z,966.7
2023-04-25T11:40:00.889Z,966.2
2023-04-25T11:41:01.060Z,964.9
2023-04-25T11:42:00.961Z,966
2023-04-25T11:43:00.761Z,965.4
2023-04-25T11:44:00.700Z,966.9
2023-04-25T11:45:00.759Z,966.7
2023-04-25T11:46:00.699Z,967.1
2023-04-25T11:47:00.635Z,965.4
2023-04-25T11:48:00.702Z,964.9
2023-04-25T11:49:00.559Z,965.8
2023-04-25T11:50:00.576Z,965.8
2023-04-25T11:51:00.493Z,965.6
2023-04-25T11:52:00.499Z,965.1
2023-04-25T11:53:00.494Z,964.9
2023-04-25T11:54:00.487Z,964.5
2023-04-25T11:55:00.515Z,964.7
2023-04-25T11:56:00.512Z,963
2023-04-25T11:57:00.526Z,963.6
2023-04-25T11:58:00.508Z,962.7
2023-04-25T11:59:00.547Z,964
2023-04-25T12:00:01.151Z,965.4
2023-04-25T12:01:00.545Z,965.6
2023-04-25T12:02:00.525Z,965.1
2023-04-25T12:03:00.683Z,963.2
2023-04-25T12:04:00.677Z,963.8
2023-04-25T12:05:11.840Z,965.1
2023-04-25T12:06:00.710Z,964.5
2023-04-25T12:07:00.573Z,963.6
2023-04-25T12:08:00.511Z,963.6
2023-04-25T12:09:00.514Z,961
2023-04-25T12:10:00.622Z,963.2
2023-04-25T12:11:00.531Z,962.3
2023-04-25T12:12:00.507Z,962.7
2023-04-25T12:13:00.502Z,963.2
2023-04-25T12:14:00.510Z,962.7
2023-04-25T12:15:01.576Z,963
2023-04-25T12:16:00.540Z,963.2
2023-04-25T12:17:00.520Z,963.4
2023-04-25T12:18:00.551Z,963.4
2023-04-25T12:19:00.522Z,963.6
2023-04-25T12:20:00.531Z,963.2
2023-04-25T12:21:00.535Z,963.8
2023-04-25T12:22:00.509Z,964
2023-04-25T12:23:00.502Z,964.7
2023-04-25T12:24:00.509Z,964.5
2023-04-25T12:25:00.613Z,964.9
2023-04-25T12:26:00.653Z,964.7
2023-04-25T12:27:00.646Z,964
2023-04-25T12:28:00.526Z,963.6
2023-04-25T12:29:00.552Z,963.6
2023-04-25T12:30:00.745Z,964.7
2023-04-25T12:31:00.589Z,965.4
2023-04-25T12:32:00.677Z,964.9
2023-04-25T12:33:00.610Z,963.4
2023-04-25T12:34:00.525Z,963.6
2023-04-25T12:35:00.538Z,962.7
2023-04-25T12:36:00.551Z,962.7
2023-04-25T12:37:00.925Z,963.2
2023-04-25T12:38:00.633Z,963.2
2023-04-25T12:39:00.564Z,963.4
2023-04-25T12:40:00.606Z,963.2
2023-04-25T12:41:00.590Z,963.2
2023-04-25T12:42:00.573Z,962.7
2023-04-25T12:43:00.531Z,963.6
2023-04-25T12:44:00.527Z,963.8
2023-04-25T12:45:00.599Z,961.2
2023-04-25T12:46:00.550Z,961.9
2023-04-25T12:47:00.658Z,961.7
2023-04-25T12:48:02.109Z,962.3
2023-04-25T12:49:11.759Z,961
2023-04-25T12:50:00.565Z,960.6
2023-04-25T12:51:00.558Z,961.7
2023-04-25T12:52:00.528Z,961.4
2023-04-25T12:53:00.576Z,961.4
2023-04-25T12:54:00.561Z,960.4
2023-04-25T12:55:00.580Z,961.2
2023-04-25T12:56:00.589Z,962.3
2023-04-25T12:57:00.570Z,962.3